createdAt,value
2023-10-24T00:00:27.414Z,9.90
2023-10-24T00:02:54.695Z,10.40
2023-10-24T00:05:21.949Z,10.38
2023-10-24T00:07:50.949Z,11.15
2023-10-24T00:10:18.476Z,10.77
2023-10-24T00:12:45.743Z,10.60
2023-10-24T00:15:13.123Z,10.82
2023-10-24T00:17:40.336Z,10.77
2023-10-24T00:20:08.230Z,11.13
2023-10-24T00:22:35.461Z,11.77
2023-10-24T00:25:02.733Z,10.95
2023-10-24T00:27:30.064Z,11.05
2023-10-24T00:29:57.281Z,12.18
2023-10-24T00:32:25.059Z,11.82
2023-10-24T00:34:52.327Z,11.57
2023-10-24T00:37:19.585Z,12.02
2023-10-24T00:39:46.895Z,12.55
2023-10-24T00:42:14.222Z,13.75
2023-10-24T00:44:42.880Z,14.55
2023-10-24T00:47:11.597Z,14.43
2023-10-24T00:49:39.299Z,13.82
2023-10-24T00:52:06.810Z,15.63
2023-10-24T00:54:34.968Z,14.40
2023-10-24T00:57:02.665Z,16.35
2023-10-24T00:59:30.378Z,15.25
2023-10-24T01:01:57.938Z,17.30
2023-10-24T01:04:25.393Z,17.30
2023-10-24T01:06:52.653Z,17.52
2023-10-24T01:09:20.974Z,16.55
2023-10-24T01:11:50.250Z,16.15
2023-10-24T01:14:17.631Z,18.48
2023-10-24T01:16:45.749Z,18.27
2023-10-24T01:19:13.744Z,17.98
2023-10-24T01:21:45.130Z,17.13
2023-10-24T01:24:14.116Z,17.77
2023-10-24T01:26:42.585Z,18.13
2023-10-24T01:29:10.282Z,19.05
2023-10-24T01:31:37.930Z,20.38
2023-10-24T01:34:05.459Z,18.35
2023-10-24T01:36:32.738Z,19.38
2023-10-24T01:38:59.958Z,18.30
2023-10-24T01:41:27.273Z,18.08
2023-10-24T01:43:55.166Z,21.38
2023-10-24T01:46:22.472Z,21.95
2023-10-24T01:48:49.744Z,22.65
2023-10-24T01:51:17.000Z,23.58
2023-10-24T01:53:44.201Z,19.65
2023-10-24T01:56:14.797Z,22.23
2023-10-24T01:58:42.171Z,20.00
2023-10-24T02:01:09.540Z,17.80
2023-10-24T02:03:37.123Z,20.50
2023-10-24T02:06:04.940Z,20.20
2023-10-24T02:08:32.537Z,21.17
2023-10-24T02:10:59.679Z,20.42
2023-10-24T02:13:27.159Z,18.83
2023-10-24T02:15:55.740Z,20.73
2023-10-24T02:18:23.057Z,18.90
2023-10-24T02:20:50.779Z,19.25
2023-10-24T02:23:18.191Z,18.83
2023-10-24T02:25:45.449Z,20.33
2023-10-24T02:28:13.079Z,19.45
2023-10-24T02:30:40.442Z,18.92
2023-10-24T02:33:07.783Z,20.98
2023-10-24T02:35:35.010Z,18.50
2023-10-24T02:38:02.275Z,18.38
2023-10-24T02:40:29.716Z,18.70
2023-10-24T02:42:57.086Z,18.70
2023-10-24T02:45:24.940Z,17.08
2023-10-24T02:47:52.613Z,15.57
2023-10-24T02:50:20.205Z,17.75
2023-10-24T02:52:48.571Z,15.57
2023-10-24T02:55:16.024Z,16.60
2023-10-24T02:57:43.348Z,16.33
2023-10-24T03:00:11.037Z,15.55
2023-10-24T03:02:38.422Z,14.50
2023-10-24T03:05:05.836Z,15.85
2023-10-24T03:07:33.086Z,15.32
2023-10-24T03:10:00.418Z,17.63
2023-10-24T03:12:27.660Z,14.98
2023-10-24T03:14:56.976Z,14.95
2023-10-24T03:17:24.436Z,12.88
2023-10-24T03:19:51.958Z,13.30
2023-10-24T03:22:21.453Z,12.70
2023-10-24T03:24:48.837Z,13.70
2023-10-24T03:27:16.118Z,18.88
2023-10-24T03:29:43.327Z,12.35
2023-10-24T03:32:11.549Z,13.88
2023-10-24T03:34:39.747Z,13.18
2023-10-24T03:37:07.128Z,14.27
2023-10-24T03:39:34.365Z,13.07
2023-10-24T03:42:01.892Z,11.65
2023-10-24T03:44:29.148Z,14.65
2023-10-24T03:46:56.592Z,11.45
2023-10-24T03:49:24.053Z,11.73
2023-10-24T03:51:51.268Z,11.75
2023-10-24T03:54:18.509Z,12.32
2023-10-24T03:56:45.740Z,11.13
2023-10-24T03:59:13.743Z,10.40
2023-10-24T04:01:42.156Z,11.13
2023-10-24T04:04:09.484Z,11.48
2023-10-24T04:06:36.685Z,10.77
2023-10-24T04:09:07.911Z,12.43
2023-10-24T04:11:35.249Z,13.55
2023-10-24T04:14:03.403Z,11.85
2023-10-24T04:16:32.085Z,13.55
2023-10-24T04:18:59.382Z,13.38
2023-10-24T04:21:26.657Z,12.55
2023-10-24T04:23:54.075Z,13.25
2023-10-24T04:26:21.340Z,13.57
2023-10-24T04:28:49.430Z,15.68
2023-10-24T04:31:16.926Z,17.23
2023-10-24T04:33:44.217Z,14.80
2023-10-24T04:36:15.701Z,16.50
2023-10-24T04:38:42.888Z,14.55
2023-10-24T04:41:10.190Z,23.67
2023-10-24T04:43:37.570Z,15.82
2023-10-24T04:46:04.815Z,17.27
2023-10-24T04:48:32.088Z,16.85
2023-10-24T04:50:59.339Z,18.85
2023-10-24T04:53:26.589Z,17.02
2023-10-24T04:55:53.875Z,16.58
2023-10-24T04:58:21.145Z,14.60
2023-10-24T05:00:48.442Z,17.00
2023-10-24T05:03:15.836Z,18.85
2023-10-24T05:05:43.155Z,17.13
2023-10-24T05:08:11.499Z,19.40
2023-10-24T05:10:39.025Z,16.10
2023-10-24T05:13:06.904Z,18.25
2023-10-24T05:15:34.232Z,16.02
2023-10-24T05:18:01.428Z,17.40
2023-10-24T05:20:28.664Z,17.45
2023-10-24T05:22:55.941Z,16.35
2023-10-24T05:25:23.365Z,15.73
2023-10-24T05:27:50.599Z,16.77
2023-10-24T05:30:17.834Z,17.50
2023-10-24T05:32:45.391Z,17.63
2023-10-24T05:35:12.722Z,19.23
2023-10-24T05:37:40.000Z,19.38
2023-10-24T05:40:08.225Z,18.08
2023-10-24T05:42:35.558Z,18.08
2023-10-24T05:45:02.789Z,16.10
2023-10-24T05:47:30.221Z,20.10
2023-10-24T05:49:57.483Z,17.88
2023-10-24T05:52:24.830Z,18.98
2023-10-24T05:54:52.172Z,18.65
2023-10-24T05:57:19.456Z,19.92
2023-10-24T05:59:46.649Z,21.15
2023-10-24T06:02:13.970Z,20.73
2023-10-24T06:04:41.704Z,18.02
2023-10-24T06:07:09.283Z,17.73
2023-10-24T06:09:36.631Z,18.38
2023-10-24T06:12:03.988Z,18.67
2023-10-24T06:14:31.216Z,17.80
2023-10-24T06:16:58.525Z,21.60
2023-10-24T06:19:25.920Z,17.00
2023-10-24T06:21:53.239Z,18.73
2023-10-24T06:24:20.573Z,18.05
2023-10-24T06:26:48.000Z,19.83
2023-10-24T06:29:15.409Z,16.42
2023-10-24T06:31:42.779Z,19.65
2023-10-24T06:34:10.101Z,16.05
2023-10-24T06:36:37.421Z,18.98
2023-10-24T06:39:05.134Z,14.80
2023-10-24T06:41:32.981Z,16.92
2023-10-24T06:44:00.358Z,17.85
2023-10-24T06:46:28.158Z,15.68
2023-10-24T06:48:55.524Z,18.25
2023-10-24T06:51:22.756Z,18.23
2023-10-24T06:53:49.989Z,15.90
2023-10-24T06:56:18.880Z,15.35
2023-10-24T06:58:48.189Z,16.02
2023-10-24T07:01:15.540Z,16.58
2023-10-24T07:03:42.867Z,18.33
2023-10-24T07:06:11.937Z,15.50
2023-10-24T07:08:39.738Z,15.07
2023-10-24T07:11:06.995Z,16.77
2023-10-24T07:13:38.211Z,15.95
2023-10-24T07:16:12.795Z,17.83
2023-10-24T07:18:40.044Z,17.58
2023-10-24T07:21:07.459Z,17.42
2023-10-24T07:23:35.266Z,16.85
2023-10-24T07:26:03.323Z,16.52
2023-10-24T07:28:31.053Z,17.67
2023-10-24T07:30:58.394Z,18.92
2023-10-24T07:33:25.642Z,16.00
2023-10-24T07:35:52.992Z,18.52
2023-10-24T07:38:20.655Z,17.55
2023-10-24T07:40:49.498Z,17.67
2023-10-24T07:43:16.817Z,15.73
2023-10-24T07:45:44.053Z,19.10
2023-10-24T07:48:13.732Z,18.98
2023-10-24T07:50:40.952Z,18.27
2023-10-24T07:53:08.224Z,20.45
2023-10-24T07:55:35.438Z,20.27
2023-10-24T07:58:02.660Z,19.50
2023-10-24T08:00:29.924Z,20.90
2023-10-24T08:02:59.203Z,19.75
2023-10-24T08:05:26.833Z,20.90
2023-10-24T08:07:54.092Z,20.98
2023-10-24T08:10:21.426Z,21.83
2023-10-24T08:12:48.783Z,23.40
2023-10-24T08:15:15.973Z,21.48
2023-10-24T08:17:43.344Z,20.00
2023-10-24T08:20:11.036Z,22.88
2023-10-24T08:22:38.371Z,21.13
2023-10-24T08:25:05.838Z,21.15
2023-10-24T08:27:33.026Z,20.88
2023-10-24T08:30:00.531Z,22.50
2023-10-24T08:32:28.506Z,19.52
2023-10-24T08:34:56.513Z,21.83
2023-10-24T08:37:27.124Z,21.40
2023-10-24T08:39:58.041Z,18.15
2023-10-24T08:42:27.140Z,20.42
2023-10-24T08:44:54.576Z,19.90
2023-10-24T08:47:22.300Z,20.48
2023-10-24T08:49:50.129Z,20.10
2023-10-24T08:52:30.048Z,22.63
2023-10-24T08:55:02.339Z,19.63
2023-10-24T08:57:33.380Z,20.38
2023-10-24T09:00:01.991Z,18.58
2023-10-24T09:02:29.647Z,18.40
2023-10-24T09:04:57.110Z,19.27
2023-10-24T09:07:24.449Z,19.45
2023-10-24T09:09:52.068Z,19.25
2023-10-24T09:12:19.380Z,19.15
2023-10-24T09:14:53.587Z,17.63
2023-10-24T09:17:22.737Z,19.80
2023-10-24T09:19:50.688Z,18.75
2023-10-24T09:22:19.187Z,15.98
2023-10-24T09:24:47.717Z,15.45
2023-10-24T09:27:18.558Z,15.80
2023-10-24T09:29:50.592Z,16.83
2023-10-24T09:32:19.139Z,17.10
2023-10-24T09:34:47.898Z,14.85
2023-10-24T09:37:15.893Z,14.98
2023-10-24T09:39:53.468Z,14.23
2023-10-24T09:42:26.058Z,15.85
2023-10-24T09:44:56.770Z,16.33
2023-10-24T09:47:24.635Z,14.32
2023-10-24T09:49:55.888Z,13.27
2023-10-24T09:52:25.916Z,14.27
2023-10-24T09:54:55.574Z,14.07
2023-10-24T09:57:23.945Z,12.70
2023-10-24T09:59:58.051Z,12.82
2023-10-24T10:02:26.034Z,12.85
2023-10-24T10:04:53.649Z,13.35
2023-10-24T10:07:24.534Z,13.25
2023-10-24T10:09:55.703Z,13.43
2023-10-24T10:12:23.119Z,13.50
2023-10-24T10:15:08.713Z,13.13
2023-10-24T10:20:39.383Z,10.85
2023-10-24T10:23:33.027Z,12.23
2023-10-24T10:26:03.669Z,12.07
2023-10-24T10:29:06.378Z,12.15
2023-10-24T10:32:40.036Z,13.07
2023-10-24T10:34:38.077Z,12.15
2023-10-24T10:37:05.909Z,11.77
2023-10-24T10:39:33.196Z,13.18
2023-10-24T10:42:00.465Z,12.95
2023-10-24T10:44:45.074Z,15.70
2023-10-24T10:47:14.374Z,14.18
2023-10-24T10:49:52.788Z,14.93
2023-10-24T10:52:30.079Z,12.75
2023-10-24T10:55:29.441Z,12.18
2023-10-24T10:58:11.327Z,12.23
2023-10-24T11:01:03.408Z,13.93
2023-10-24T11:03:47.864Z,13.50
2023-10-24T11:06:16.570Z,12.23
2023-10-24T11:08:45.767Z,11.25
2023-10-24T11:11:13.078Z,12.35
2023-10-24T11:13:44.163Z,14.18
2023-10-24T11:16:25.188Z,11.05
2023-10-24T11:18:54.951Z,12.63
2023-10-24T11:21:22.155Z,9.30
2023-10-24T11:23:49.340Z,10.35
2023-10-24T11:26:16.916Z,10.65
2023-10-24T11:28:45.395Z,12.60
2023-10-24T11:31:39.595Z,11.93
2023-10-24T11:34:06.940Z,10.93
2023-10-24T11:36:34.300Z,12.10
2023-10-24T11:39:05.229Z,11.15
2023-10-24T11:41:32.482Z,12.10
2023-10-24T11:44:00.167Z,11.80
2023-10-24T11:46:27.528Z,12.55
2023-10-24T11:48:54.856Z,11.93
2023-10-24T11:51:22.201Z,11.32
2023-10-24T11:53:50.450Z,12.75
2023-10-24T11:56:17.712Z,11.60
2023-10-24T11:58:45.044Z,12.48
2023-10-24T12:01:12.327Z,11.32
2023-10-24T12:03:46.971Z,10.90
2023-10-24T12:06:17.055Z,11.32
2023-10-24T12:08:44.708Z,13.38
2023-10-24T12:11:12.316Z,11.65
2023-10-24T12:13:40.440Z,11.35
2023-10-24T12:16:08.924Z,11.75
2023-10-24T12:18:39.229Z,10.98
2023-10-24T12:21:08.905Z,10.73
2023-10-24T12:23:37.568Z,11.88
2023-10-24T12:26:06.161Z,11.23
2023-10-24T12:28:37.857Z,10.73
2023-10-24T12:31:06.271Z,10.20
2023-10-24T12:33:33.930Z,11.23
2023-10-24T12:36:02.420Z,10.23
2023-10-24T12:38:30.569Z,9.50
2023-10-24T12:40:58.027Z,8.85
2023-10-24T12:43:25.213Z,11.93
2023-10-24T12:45:52.913Z,10.88
2023-10-24T12:48:20.834Z,11.02
2023-10-24T12:50:48.691Z,9.00
2023-10-24T12:53:15.994Z,9.70
2023-10-24T12:55:44.367Z,9.95
2023-10-24T12:58:11.881Z,9.38
2023-10-24T13:00:39.148Z,9.70
2023-10-24T13:03:16.310Z,8.18
2023-10-24T13:05:46.437Z,9.50
2023-10-24T13:08:13.742Z,11.25
2023-10-24T13:10:41.466Z,9.70
2023-10-24T13:13:08.890Z,8.02
2023-10-24T13:15:36.166Z,8.40
2023-10-24T13:18:03.519Z,7.97
2023-10-24T13:20:30.855Z,9.45
2023-10-24T13:22:58.233Z,9.00
2023-10-24T13:25:25.521Z,8.45
2023-10-24T13:27:52.712Z,8.75
2023-10-24T13:30:33.564Z,7.90
2023-10-24T13:33:07.455Z,8.73
2023-10-24T13:38:04.836Z,8.65
2023-10-24T13:40:32.134Z,9.48
2023-10-24T13:42:59.382Z,9.00
2023-10-24T13:47:55.581Z,8.38
2023-10-24T13:50:22.783Z,9.70
2023-10-24T13:52:51.520Z,8.82
2023-10-24T13:55:18.953Z,10.63
2023-10-24T13:57:47.977Z,9.23
2023-10-24T14:00:15.625Z,7.30
2023-10-24T14:02:43.416Z,7.70
2023-10-24T14:05:11.509Z,8.63
2023-10-24T14:07:38.974Z,7.43
2023-10-24T14:10:07.085Z,7.78
2023-10-24T14:12:34.855Z,7.97
2023-10-24T14:15:02.261Z,7.97
2023-10-24T14:17:29.551Z,9.07
2023-10-24T14:19:56.786Z,8.20
2023-10-24T14:22:24.648Z,8.23
2023-10-24T14:24:53.695Z,8.10
2023-10-24T14:27:21.047Z,7.93
2023-10-24T14:29:48.784Z,7.85
2023-10-24T14:32:17.330Z,8.30
2023-10-24T14:34:44.688Z,8.68
2023-10-24T14:37:12.593Z,7.05
2023-10-24T14:39:40.091Z,7.90
2023-10-24T14:42:07.826Z,7.10
2023-10-24T14:44:35.661Z,6.13
2023-10-24T14:47:05.047Z,7.75
2023-10-24T14:49:32.251Z,9.60
2023-10-24T14:52:00.217Z,9.75
2023-10-24T14:54:27.493Z,7.03
2023-10-24T14:56:54.899Z,8.40
2023-10-24T14:59:22.406Z,8.20
2023-10-24T15:01:49.810Z,7.70
2023-10-24T15:04:20.465Z,7.45
2023-10-24T15:06:47.665Z,8.73
2023-10-24T15:09:20.405Z,7.18
2023-10-24T15:11:51.234Z,7.60
2023-10-24T15:14:18.989Z,9.77
2023-10-24T15:16:46.312Z,7.25
2023-10-24T15:19:13.537Z,7.03
2023-10-24T15:21:40.951Z,8.13
2023-10-24T15:24:08.220Z,9.18
2023-10-24T15:26:36.678Z,8.52
2023-10-24T15:29:06.113Z,8.60
2023-10-24T15:31:36.749Z,9.10
2023-10-24T15:34:04.066Z,9.48
2023-10-24T15:36:33.214Z,8.43
2023-10-24T15:39:01.638Z,8.07
2023-10-24T15:41:28.931Z,8.98
2023-10-24T15:43:56.266Z,9.05
2023-10-24T15:46:23.550Z,10.85
2023-10-24T15:48:52.605Z,8.48
2023-10-24T15:51:20.970Z,10.52
2023-10-24T15:53:49.443Z,9.88
2023-10-24T15:56:17.765Z,9.60
2023-10-24T15:58:44.972Z,11.13
2023-10-24T16:01:13.241Z,12.18
2023-10-24T16:03:41.016Z,12.05
2023-10-24T16:06:08.731Z,8.77
2023-10-24T16:08:37.006Z,12.40
2023-10-24T16:11:04.537Z,8.43
2023-10-24T16:13:32.103Z,8.50
2023-10-24T16:16:01.328Z,5.47
2023-10-24T16:18:28.627Z,6.63
2023-10-24T16:20:59.988Z,6.40
2023-10-24T16:23:28.213Z,5.47
2023-10-24T16:25:59.404Z,6.57
2023-10-24T16:28:27.537Z,4.82
2023-10-24T16:30:54.753Z,5.50
2023-10-24T16:33:22.233Z,5.38
2023-10-24T16:35:50.115Z,5.38
2023-10-24T16:38:17.675Z,6.35
2023-10-24T16:40:45.183Z,8.27
2023-10-24T16:43:12.467Z,7.50
2023-10-24T16:45:39.790Z,8.55
2023-10-24T16:48:07.471Z,8.75
2023-10-24T16:50:37.941Z,9.63
2023-10-24T16:53:06.184Z,7.38
2023-10-24T16:55:36.953Z,7.47
2023-10-24T16:58:04.343Z,7.80
2023-10-24T17:00:31.567Z,7.88
2023-10-24T17:02:59.057Z,9.70
2023-10-24T17:05:26.595Z,9.77
2023-10-24T17:07:53.918Z,11.85
2023-10-24T17:10:21.238Z,10.15
2023-10-24T17:12:48.438Z,10.48
2023-10-24T17:15:15.706Z,10.00
2023-10-24T17:17:43.126Z,11.20
2023-10-24T17:20:10.754Z,11.70
2023-10-24T17:22:38.292Z,9.52
2023-10-24T17:25:06.259Z,10.43
2023-10-24T17:27:33.695Z,9.27
2023-10-24T17:30:02.447Z,7.97
2023-10-24T17:32:31.943Z,9.43
2023-10-24T17:34:59.333Z,9.93
2023-10-24T17:37:26.577Z,10.77
2023-10-24T17:39:54.035Z,9.57
2023-10-24T17:42:22.410Z,11.68
2023-10-24T17:44:49.597Z,11.88
2023-10-24T17:47:17.026Z,10.07
2023-10-24T17:49:45.932Z,10.10
2023-10-24T17:52:13.284Z,9.07
2023-10-24T17:54:40.676Z,12.73
2023-10-24T17:57:08.063Z,9.65
2023-10-24T17:59:35.338Z,10.13
2023-10-24T18:02:02.585Z,9.13
2023-10-24T18:04:30.009Z,9.93
2023-10-24T18:07:01.441Z,12.07
2023-10-24T18:09:33.306Z,10.32
2023-10-24T18:12:02.132Z,11.70
2023-10-24T18:14:29.499Z,12.05
2023-10-24T18:16:56.770Z,11.38
2023-10-24T18:19:25.142Z,11.52
2023-10-24T18:21:52.452Z,9.95
2023-10-24T18:24:19.615Z,11.13
2023-10-24T18:26:47.657Z,12.82
2023-10-24T18:29:15.051Z,11.45
2023-10-24T18:31:42.487Z,13.95
2023-10-24T18:34:09.883Z,9.27
2023-10-24T18:36:37.019Z,9.40
2023-10-24T18:39:05.901Z,13.38
2023-10-24T18:41:33.205Z,13.85
2023-10-24T18:44:00.492Z,10.25
2023-10-24T18:46:27.750Z,11.32
2023-10-24T18:48:55.047Z,12.00
2023-10-24T18:51:22.322Z,10.70
2023-10-24T18:53:49.733Z,10.13
2023-10-24T18:56:23.101Z,11.07
2023-10-24T18:58:50.458Z,9.00
2023-10-24T19:01:20.700Z,15.05
2023-10-24T19:03:47.985Z,9.57
2023-10-24T19:06:15.299Z,11.45
2023-10-24T19:08:42.560Z,14.30
2023-10-24T19:11:09.915Z,9.80
2023-10-24T19:13:37.826Z,12.00
2023-10-24T19:16:05.946Z,11.18
2023-10-24T19:18:33.497Z,10.10
2023-10-24T19:21:00.958Z,12.20
2023-10-24T19:23:28.452Z,15.75
2023-10-24T19:25:56.070Z,12.02
2023-10-24T19:28:25.477Z,11.57
2023-10-24T19:30:53.016Z,8.68
2023-10-24T19:33:20.499Z,13.10
2023-10-24T19:35:49.728Z,11.40
2023-10-24T19:38:18.472Z,11.02
2023-10-24T19:40:45.770Z,12.18
2023-10-24T19:43:13.177Z,12.00
2023-10-24T19:45:40.756Z,10.55
2023-10-24T19:48:18.065Z,10.15
2023-10-24T19:50:45.987Z,13.63
2023-10-24T19:53:13.432Z,10.07
2023-10-24T19:55:44.334Z,14.90
2023-10-24T19:58:11.879Z,10.00
2023-10-24T20:00:39.403Z,10.75
2023-10-24T20:03:08.029Z,12.82
2023-10-24T20:05:35.749Z,14.90
2023-10-24T20:08:03.893Z,15.90
2023-10-24T20:12:31.625Z,11.75
2023-10-24T20:13:20.719Z,8.70
2023-10-24T20:15:48.418Z,10.02
2023-10-24T20:18:15.805Z,12.38
2023-10-24T20:20:43.252Z,11.77
2023-10-24T20:23:10.641Z,10.93
2023-10-24T20:25:38.213Z,10.13
2023-10-24T20:28:05.817Z,12.02
2023-10-24T20:30:35.376Z,10.90
2023-10-24T20:33:02.768Z,11.07
2023-10-24T20:35:30.177Z,9.90
2023-10-24T20:37:58.114Z,11.07
2023-10-24T20:40:25.564Z,10.98
2023-10-24T20:42:53.414Z,10.63
2023-10-24T20:45:21.015Z,10.38
2023-10-24T20:47:48.339Z,13.52
2023-10-24T20:50:15.876Z,11.10
2023-10-24T20:52:43.217Z,14.45
2023-10-24T20:55:10.758Z,12.75
2023-10-24T20:57:38.167Z,11.82
2023-10-24T21:00:06.434Z,9.77
2023-10-24T21:02:33.732Z,11.45
2023-10-24T21:05:01.389Z,11.98
2023-10-24T21:07:28.894Z,10.40
2023-10-24T21:09:56.280Z,9.82
2023-10-24T21:12:23.635Z,10.43
2023-10-24T21:14:51.218Z,11.95
2023-10-24T21:17:18.460Z,13.88
2023-10-24T21:19:46.238Z,8.75
2023-10-24T21:22:13.617Z,10.75
2023-10-24T21:24:40.922Z,11.63
2023-10-24T21:27:08.243Z,14.18
2023-10-24T21:29:35.538Z,14.75
2023-10-24T21:32:02.831Z,12.32
2023-10-24T21:34:30.292Z,11.75
2023-10-24T21:36:58.745Z,12.20
2023-10-24T21:39:26.094Z,9.65
2023-10-24T21:41:56.526Z,11.48
2023-10-24T21:44:23.795Z,16.30
2023-10-24T21:46:51.076Z,11.07
2023-10-24T21:49:18.379Z,10.65
2023-10-24T21:51:45.855Z,13.00
2023-10-24T21:54:13.109Z,10.02
2023-10-24T21:56:42.059Z,11.15
2023-10-24T21:59:09.835Z,8.63
2023-10-24T22:01:37.162Z,13.45
2023-10-24T22:04:04.733Z,11.95
2023-10-24T22:06:32.135Z,11.75
2023-10-24T22:08:59.487Z,10.38
2023-10-24T22:11:26.689Z,13.73
2023-10-24T22:13:53.965Z,11.10
2023-10-24T22:16:21.309Z,11.52
2023-10-24T22:18:48.730Z,13.15
2023-10-24T22:21:17.097Z,13.05
2023-10-24T22:23:44.438Z,9.40
2023-10-24T22:26:11.720Z,12.70
2023-10-24T22:28:39.061Z,11.70
2023-10-24T22:31:06.416Z,11.65
2023-10-24T22:33:33.727Z,18.35
2023-10-24T22:36:00.957Z,11.45
2023-10-24T22:38:28.236Z,13.88
2023-10-24T22:40:59.974Z,17.70
2023-10-24T22:43:27.190Z,11.45
2023-10-24T22:45:54.477Z,13.23
2023-10-24T22:48:21.745Z,11.63
2023-10-24T22:50:48.951Z,16.90
2023-10-24T22:53:16.200Z,12.93
2023-10-24T22:55:43.400Z,13.38
2023-10-24T22:58:10.651Z,10.88
2023-10-24T23:00:38.042Z,13.35
2023-10-24T23:03:05.433Z,13.73
2023-10-24T23:05:32.914Z,12.75
2023-10-24T23:08:00.223Z,14.05
2023-10-24T23:10:27.449Z,11.07
2023-10-24T23:12:54.801Z,11.90
2023-10-24T23:15:22.050Z,11.93
2023-10-24T23:17:49.349Z,13.48
2023-10-24T23:20:16.646Z,12.25
2023-10-24T23:22:43.959Z,13.23
2023-10-24T23:25:11.246Z,14.38
2023-10-24T23:27:38.700Z,10.93
2023-10-24T23:30:07.768Z,14.45
2023-10-24T23:32:35.037Z,12.68
2023-10-24T23:35:02.508Z,11.35
2023-10-24T23:37:29.740Z,12.02
2023-10-24T23:39:57.030Z,14.77
2023-10-24T23:42:24.306Z,14.68
2023-10-24T23:44:51.572Z,12.13
2023-10-24T23:47:18.816Z,14.55
2023-10-24T23:49:46.047Z,13.85
2023-10-24T23:52:13.321Z,15.00
2023-10-24T23:54:40.616Z,12.05
2023-10-24T23:57:08.092Z,12.68
2023-10-24T23:59:35.454Z,12.60
